logo
Search for airport 
image banner adimage banner adimage banner ad
image banner ad

ED0243 - Daun-Senheld

Located in , Germany

ICAO - , IATA -

Data provided by Airmate  

General information

Coordinates: N50°10'41" E6°51'50"
Elevation is 1722 feet MSL.
 
View others Airports in Rhineland-Palatinate

Operational data

Special qualification required
Current time UTC:
Current local time:
Weather at : ETSB - Buechel ( 14 km )
METAR: ETSB 041031Z 26007KT 9999 SCT012 BKN260 13/09 Q1029 BLU+FCST CNL
TAF: TAF ETSB 041024Z 0411/0420 25010KT 9999 NSW FEW025 SCT250
View NOTAMs / SUP AIP / TFR affecting this airport [VIEW]
Communications frequencies: [VIEW]

Runways:

Airport contact information

Address: Germany

Satellite view of ED0243